Main page
METAR-TAF:

METAR-TAF

Airports :

Dundee Airport

Dundee, Scotland

latitude: 56-27N, longitude: 003-01W, elevation: 4 m

Current weather observation

The report was made 22 minutes ago, at 05:20 UTC
Wind 3 kt from the West/Northwest
Temperature 4°C
Humidity 93%
Pressure 993 hPa
Visibility 10 km or more
Few clouds at a height of 3000 ft

METAR: EGPN 240520Z 30003KT 9999 FEW030 04/03 Q0993

Time: 06:42 (05:42 UTC)

Forecast

The report was made 12 hours and 41 minutes ago, at 17:01 UTC
Forecast valid from 23 at 18 UTC to 23 at 20 UTC
Wind 4 kt from the East/Southeast
Visibility 10 km or more
Few clouds at a height of 4000 ft

TAF: EGPN 231701Z 2318/2320 12004KT 9999 FEW040

Weather observations and forecasts of more than 4000 airports (METAR and TAF reports).

The available stations are represented by yellow and red dots on the map.

Hover mouse over dot to see the name of the station.

Then click to see weather observations and forecasts.

To change the map : click on the green buttons with a black cross to zoom in, on the green button with a dash to zoom out, or on the green arrows for adjacent maps.


METAR-TAF: